Terminal Aerodrome Forecast
Issued by NWS Boston, MA

Home | Current Version | Previous Version | Text Only | Print | Product List | Glossary On
Versions: 1 2 3 4 5 6 7 8 9 10 11 12 13 14 15 16 17 18 19 20 21 22 23 24 25 26 27 28 29 30 31 32 33 34 35 36 37 38 39 40 41
573
FTUS41 KBOX 131122
TAFBOS
TAF
KBOS 131122Z 1312/1418 29007KT 6SM -SHSN BKN060
     FM131300 29010KT P6SM BKN050
     FM131500 30015G23KT P6SM BKN045
     FM132000 30019G26KT P6SM SCT035
     FM132300 30021G35KT P6SM SCT250
     FM141500 31014G26KT P6SM SCT250=

USA.gov is the U.S. government's official web portal to all federal, state and local government web resources and services.